sensor_id;sensor_type;location;lat;lon;timestamp;P1;durP1;ratioP1;P2;durP2;ratioP2
16320;SDS011;8269;50.990;4.494;2023-06-04T00:00:02;4.63;;;1.60;;
16320;SDS011;8269;50.990;4.494;2023-06-04T00:02:29;4.05;;;1.65;;
16320;SDS011;8269;50.990;4.494;2023-06-04T00:04:55;6.20;;;2.05;;
16320;SDS011;8269;50.990;4.494;2023-06-04T00:07:21;6.47;;;2.00;;
16320;SDS011;8269;50.990;4.494;2023-06-04T00:09:47;3.55;;;1.80;;
16320;SDS011;8269;50.990;4.494;2023-06-04T00:12:13;3.10;;;1.75;;
16320;SDS011;8269;50.990;4.494;2023-06-04T00:14:39;2.90;;;2.00;;
16320;SDS011;8269;50.990;4.494;2023-06-04T00:17:07;3.00;;;1.80;;
16320;SDS011;8269;50.990;4.494;2023-06-04T00:19:33;4.85;;;2.10;;
16320;SDS011;8269;50.990;4.494;2023-06-04T00:21:59;3.47;;;1.92;;
16320;SDS011;8269;50.990;4.494;2023-06-04T00:24:25;4.25;;;2.03;;
16320;SDS011;8269;50.990;4.494;2023-06-04T00:26:51;4.32;;;2.10;;
16320;SDS011;8269;50.990;4.494;2023-06-04T00:29:17;4.50;;;1.80;;
16320;SDS011;8269;50.990;4.494;2023-06-04T00:31:43;4.38;;;2.00;;
16320;SDS011;8269;50.990;4.494;2023-06-04T00:34:10;5.63;;;2.05;;
16320;SDS011;8269;50.990;4.494;2023-06-04T00:36:36;3.83;;;1.80;;
16320;SDS011;8269;50.990;4.494;2023-06-04T00:39:02;7.28;;;1.85;;
16320;SDS011;8269;50.990;4.494;2023-06-04T00:41:28;3.43;;;1.70;;
16320;SDS011;8269;50.990;4.494;2023-06-04T00:43:54;4.60;;;2.10;;
16320;SDS011;8269;50.990;4.494;2023-06-04T00:46:24;4.40;;;2.00;;
16320;SDS011;8269;50.990;4.494;2023-06-04T00:48:51;3.92;;;1.90;;
16320;SDS011;8269;50.990;4.494;2023-06-04T00:51:18;6.33;;;2.07;;
16320;SDS011;8269;50.990;4.494;2023-06-04T00:53:45;5.07;;;1.80;;
16320;SDS011;8269;50.990;4.494;2023-06-04T00:56:11;7.40;;;1.92;;
16320;SDS011;8269;50.990;4.494;2023-06-04T00:58:38;4.63;;;1.80;;
16320;SDS011;8269;50.990;4.494;2023-06-04T01:01:04;5.07;;;1.73;;
16320;SDS011;8269;50.990;4.494;2023-06-04T01:03:31;4.63;;;2.10;;
16320;SDS011;8269;50.990;4.494;2023-06-04T01:06:00;3.33;;;1.80;;
16320;SDS011;8269;50.990;4.494;2023-06-04T01:08:27;4.13;;;2.10;;
16320;SDS011;8269;50.990;4.494;2023-06-04T01:10:54;6.23;;;2.23;;
16320;SDS011;8269;50.990;4.494;2023-06-04T01:13:21;3.47;;;2.00;;
16320;SDS011;8269;50.990;4.494;2023-06-04T01:15:47;4.68;;;2.00;;
16320;SDS011;8269;50.990;4.494;2023-06-04T01:18:18;6.57;;;2.42;;
16320;SDS011;8269;50.990;4.494;2023-06-04T01:20:58;3.47;;;1.95;;
16320;SDS011;8269;50.990;4.494;2023-06-04T01:23:25;4.60;;;2.10;;
16320;SDS011;8269;50.990;4.494;2023-06-04T01:25:59;9.02;;;2.40;;
16320;SDS011;8269;50.990;4.494;2023-06-04T01:28:27;4.95;;;2.22;;
16320;SDS011;8269;50.990;4.494;2023-06-04T01:30:54;3.67;;;2.00;;
16320;SDS011;8269;50.990;4.494;2023-06-04T01:33:21;3.33;;;2.00;;
16320;SDS011;8269;50.990;4.494;2023-06-04T01:35:48;5.15;;;2.20;;
16320;SDS011;8269;50.990;4.494;2023-06-04T01:38:14;3.67;;;1.95;;
16320;SDS011;8269;50.990;4.494;2023-06-04T01:40:41;4.57;;;2.20;;
16320;SDS011;8269;50.990;4.494;2023-06-04T01:43:07;4.38;;;1.92;;
16320;SDS011;8269;50.990;4.494;2023-06-04T01:45:33;4.50;;;2.50;;
16320;SDS011;8269;50.990;4.494;2023-06-04T01:48:03;5.87;;;2.43;;
16320;SDS011;8269;50.990;4.494;2023-06-04T01:50:30;3.73;;;2.00;;
16320;SDS011;8269;50.990;4.494;2023-06-04T01:52:56;5.93;;;2.45;;
16320;SDS011;8269;50.990;4.494;2023-06-04T01:55:22;4.63;;;2.30;;
16320;SDS011;8269;50.990;4.494;2023-06-04T01:57:50;5.78;;;2.10;;
16320;SDS011;8269;50.990;4.494;2023-06-04T02:00:17;5.07;;;2.20;;
16320;SDS011;8269;50.990;4.494;2023-06-04T02:02:44;7.47;;;2.60;;
16320;SDS011;8269;50.990;4.494;2023-06-04T02:05:11;5.78;;;2.38;;
16320;SDS011;8269;50.990;4.494;2023-06-04T02:07:38;4.53;;;2.40;;
16320;SDS011;8269;50.990;4.494;2023-06-04T02:10:05;4.95;;;2.50;;
16320;SDS011;8269;50.990;4.494;2023-06-04T02:12:31;3.63;;;2.00;;
16320;SDS011;8269;50.990;4.494;2023-06-04T02:14:57;5.18;;;2.83;;
16320;SDS011;8269;50.990;4.494;2023-06-04T02:17:23;4.73;;;2.43;;
16320;SDS011;8269;50.990;4.494;2023-06-04T02:19:50;5.00;;;2.63;;
16320;SDS011;8269;50.990;4.494;2023-06-04T02:22:16;4.28;;;2.40;;
16320;SDS011;8269;50.990;4.494;2023-06-04T02:24:43;4.80;;;2.53;;
16320;SDS011;8269;50.990;4.494;2023-06-04T02:27:09;4.35;;;2.22;;
16320;SDS011;8269;50.990;4.494;2023-06-04T02:29:35;5.28;;;2.35;;
16320;SDS011;8269;50.990;4.494;2023-06-04T02:32:02;5.63;;;2.20;;
16320;SDS011;8269;50.990;4.494;2023-06-04T02:34:28;5.45;;;2.58;;
16320;SDS011;8269;50.990;4.494;2023-06-04T02:36:55;4.43;;;2.60;;
16320;SDS011;8269;50.990;4.494;2023-06-04T02:39:21;3.13;;;2.38;;
16320;SDS011;8269;50.990;4.494;2023-06-04T02:41:47;5.53;;;2.60;;
16320;SDS011;8269;50.990;4.494;2023-06-04T02:44:13;4.43;;;2.23;;
16320;SDS011;8269;50.990;4.494;2023-06-04T02:46:39;5.40;;;2.40;;
16320;SDS011;8269;50.990;4.494;2023-06-04T02:49:05;5.10;;;2.40;;
16320;SDS011;8269;50.990;4.494;2023-06-04T02:51:31;6.50;;;2.40;;
16320;SDS011;8269;50.990;4.494;2023-06-04T02:53:57;4.70;;;2.57;;
16320;SDS011;8269;50.990;4.494;2023-06-04T02:56:23;7.57;;;2.57;;
16320;SDS011;8269;50.990;4.494;2023-06-04T03:01:21;6.10;;;2.30;;
16320;SDS011;8269;50.990;4.494;2023-06-04T03:03:47;4.40;;;2.50;;
16320;SDS011;8269;50.990;4.494;2023-06-04T03:06:14;4.35;;;2.38;;
16320;SDS011;8269;50.990;4.494;2023-06-04T03:08:40;6.97;;;2.43;;
16320;SDS011;8269;50.990;4.494;2023-06-04T03:11:07;5.47;;;2.40;;
16320;SDS011;8269;50.990;4.494;2023-06-04T03:13:33;3.28;;;2.17;;
16320;SDS011;8269;50.990;4.494;2023-06-04T03:15:59;6.10;;;2.40;;
16320;SDS011;8269;50.990;4.494;2023-06-04T03:18:26;6.38;;;2.50;;
16320;SDS011;8269;50.990;4.494;2023-06-04T03:20:53;4.95;;;2.20;;
16320;SDS011;8269;50.990;4.494;2023-06-04T03:23:19;4.43;;;2.55;;
16320;SDS011;8269;50.990;4.494;2023-06-04T03:25:45;4.37;;;2.30;;
16320;SDS011;8269;50.990;4.494;2023-06-04T03:28:11;6.77;;;2.90;;
16320;SDS011;8269;50.990;4.494;2023-06-04T03:30:37;6.87;;;3.07;;
16320;SDS011;8269;50.990;4.494;2023-06-04T03:33:03;5.55;;;2.30;;
16320;SDS011;8269;50.990;4.494;2023-06-04T03:35:29;4.95;;;2.67;;
16320;SDS011;8269;50.990;4.494;2023-06-04T03:37:55;4.20;;;2.60;;
16320;SDS011;8269;50.990;4.494;2023-06-04T03:40:21;5.17;;;2.80;;
16320;SDS011;8269;50.990;4.494;2023-06-04T03:42:47;4.70;;;2.40;;
16320;SDS011;8269;50.990;4.494;2023-06-04T03:45:13;5.53;;;2.50;;
16320;SDS011;8269;50.990;4.494;2023-06-04T03:47:39;5.87;;;3.23;;
16320;SDS011;8269;50.990;4.494;2023-06-04T03:50:05;7.70;;;2.70;;
16320;SDS011;8269;50.990;4.494;2023-06-04T03:52:32;5.78;;;2.45;;
16320;SDS011;8269;50.990;4.494;2023-06-04T03:54:58;4.32;;;2.65;;
16320;SDS011;8269;50.990;4.494;2023-06-04T03:57:25;6.50;;;2.90;;
16320;SDS011;8269;50.990;4.494;2023-06-04T03:59:51;5.67;;;2.53;;
16320;SDS011;8269;50.990;4.494;2023-06-04T04:02:17;6.75;;;3.03;;
16320;SDS011;8269;50.990;4.494;2023-06-04T04:04:43;4.72;;;2.55;;
16320;SDS011;8269;50.990;4.494;2023-06-04T04:07:09;4.10;;;2.47;;
16320;SDS011;8269;50.990;4.494;2023-06-04T04:09:35;4.50;;;2.50;;
16320;SDS011;8269;50.990;4.494;2023-06-04T04:12:02;5.30;;;3.00;;
16320;SDS011;8269;50.990;4.494;2023-06-04T04:14:28;5.80;;;2.65;;
16320;SDS011;8269;50.990;4.494;2023-06-04T04:16:54;4.97;;;2.50;;
16320;SDS011;8269;50.990;4.494;2023-06-04T04:19:20;4.97;;;2.58;;
16320;SDS011;8269;50.990;4.494;2023-06-04T04:21:46;4.03;;;2.30;;
16320;SDS011;8269;50.990;4.494;2023-06-04T04:24:28;4.55;;;2.67;;
16320;SDS011;8269;50.990;4.494;2023-06-04T04:26:54;4.38;;;2.40;;
16320;SDS011;8269;50.990;4.494;2023-06-04T04:29:21;5.22;;;2.53;;
16320;SDS011;8269;50.990;4.494;2023-06-04T04:31:53;5.25;;;2.80;;
16320;SDS011;8269;50.990;4.494;2023-06-04T04:34:22;5.47;;;2.40;;
16320;SDS011;8269;50.990;4.494;2023-06-04T04:36:49;6.68;;;2.92;;
16320;SDS011;8269;50.990;4.494;2023-06-04T04:39:17;3.85;;;2.55;;
16320;SDS011;8269;50.990;4.494;2023-06-04T04:41:43;6.07;;;2.60;;
16320;SDS011;8269;50.990;4.494;2023-06-04T04:44:08;4.35;;;2.47;;
16320;SDS011;8269;50.990;4.494;2023-06-04T04:46:34;4.38;;;2.72;;
16320;SDS011;8269;50.990;4.494;2023-06-04T04:49:00;3.92;;;2.60;;
16320;SDS011;8269;50.990;4.494;2023-06-04T04:51:25;5.18;;;2.22;;
16320;SDS011;8269;50.990;4.494;2023-06-04T04:53:51;5.38;;;2.30;;
16320;SDS011;8269;50.990;4.494;2023-06-04T04:56:16;4.25;;;2.50;;
16320;SDS011;8269;50.990;4.494;2023-06-04T04:58:42;4.32;;;2.45;;
16320;SDS011;8269;50.990;4.494;2023-06-04T05:01:08;6.45;;;2.60;;
16320;SDS011;8269;50.990;4.494;2023-06-04T05:03:33;4.18;;;2.90;;
16320;SDS011;8269;50.990;4.494;2023-06-04T05:05:59;4.70;;;2.60;;
16320;SDS011;8269;50.990;4.494;2023-06-04T05:08:24;4.55;;;2.63;;
16320;SDS011;8269;50.990;4.494;2023-06-04T05:10:50;7.25;;;2.60;;
16320;SDS011;8269;50.990;4.494;2023-06-04T05:13:16;4.60;;;2.50;;
16320;SDS011;8269;50.990;4.494;2023-06-04T05:15:42;5.28;;;2.65;;
16320;SDS011;8269;50.990;4.494;2023-06-04T05:18:08;4.25;;;2.38;;
16320;SDS011;8269;50.990;4.494;2023-06-04T05:20:34;6.38;;;2.80;;
16320;SDS011;8269;50.990;4.494;2023-06-04T05:23:02;4.85;;;2.60;;
16320;SDS011;8269;50.990;4.494;2023-06-04T05:25:29;4.55;;;2.33;;
16320;SDS011;8269;50.990;4.494;2023-06-04T05:27:55;6.22;;;2.63;;
16320;SDS011;8269;50.990;4.494;2023-06-04T05:30:21;6.18;;;2.65;;
16320;SDS011;8269;50.990;4.494;2023-06-04T05:32:47;5.18;;;2.95;;
16320;SDS011;8269;50.990;4.494;2023-06-04T05:35:15;4.25;;;2.47;;
16320;SDS011;8269;50.990;4.494;2023-06-04T05:37:42;6.10;;;2.90;;
16320;SDS011;8269;50.990;4.494;2023-06-04T05:40:10;7.07;;;2.30;;
16320;SDS011;8269;50.990;4.494;2023-06-04T05:42:37;6.00;;;2.75;;
16320;SDS011;8269;50.990;4.494;2023-06-04T05:45:03;4.43;;;2.60;;
16320;SDS011;8269;50.990;4.494;2023-06-04T05:47:30;7.20;;;2.85;;
16320;SDS011;8269;50.990;4.494;2023-06-04T05:49:56;6.45;;;2.80;;
16320;SDS011;8269;50.990;4.494;2023-06-04T05:52:23;4.47;;;2.63;;
16320;SDS011;8269;50.990;4.494;2023-06-04T05:54:49;4.38;;;2.90;;
16320;SDS011;8269;50.990;4.494;2023-06-04T05:57:14;5.65;;;2.70;;
16320;SDS011;8269;50.990;4.494;2023-06-04T05:59:40;6.20;;;2.47;;
16320;SDS011;8269;50.990;4.494;2023-06-04T06:02:06;5.15;;;2.90;;
16320;SDS011;8269;50.990;4.494;2023-06-04T06:04:32;4.43;;;2.88;;
16320;SDS011;8269;50.990;4.494;2023-06-04T06:06:58;5.63;;;2.75;;
16320;SDS011;8269;50.990;4.494;2023-06-04T06:09:23;4.95;;;2.90;;
16320;SDS011;8269;50.990;4.494;2023-06-04T06:11:49;5.00;;;2.90;;
16320;SDS011;8269;50.990;4.494;2023-06-04T06:14:14;5.82;;;3.00;;
16320;SDS011;8269;50.990;4.494;2023-06-04T06:16:40;5.53;;;2.70;;
16320;SDS011;8269;50.990;4.494;2023-06-04T06:19:06;7.78;;;3.00;;
16320;SDS011;8269;50.990;4.494;2023-06-04T06:21:31;5.43;;;2.90;;
16320;SDS011;8269;50.990;4.494;2023-06-04T06:23:57;5.53;;;2.97;;
16320;SDS011;8269;50.990;4.494;2023-06-04T06:26:22;4.72;;;2.83;;
16320;SDS011;8269;50.990;4.494;2023-06-04T06:28:50;5.70;;;2.53;;
16320;SDS011;8269;50.990;4.494;2023-06-04T06:31:15;7.45;;;2.88;;
16320;SDS011;8269;50.990;4.494;2023-06-04T06:33:41;5.43;;;2.80;;
16320;SDS011;8269;50.990;4.494;2023-06-04T06:36:07;4.53;;;2.88;;
16320;SDS011;8269;50.990;4.494;2023-06-04T06:38:34;4.15;;;2.85;;
16320;SDS011;8269;50.990;4.494;2023-06-04T06:41:00;5.15;;;3.10;;
16320;SDS011;8269;50.990;4.494;2023-06-04T06:43:25;4.50;;;2.65;;
16320;SDS011;8269;50.990;4.494;2023-06-04T06:45:51;10.48;;;3.30;;
16320;SDS011;8269;50.990;4.494;2023-06-04T06:48:17;4.15;;;2.72;;
16320;SDS011;8269;50.990;4.494;2023-06-04T06:50:42;4.60;;;2.55;;
16320;SDS011;8269;50.990;4.494;2023-06-04T06:53:08;5.35;;;2.67;;
16320;SDS011;8269;50.990;4.494;2023-06-04T06:55:33;4.22;;;2.80;;
16320;SDS011;8269;50.990;4.494;2023-06-04T06:57:59;4.93;;;2.50;;
16320;SDS011;8269;50.990;4.494;2023-06-04T07:00:28;5.10;;;2.58;;
16320;SDS011;8269;50.990;4.494;2023-06-04T07:02:54;5.65;;;2.97;;
16320;SDS011;8269;50.990;4.494;2023-06-04T07:05:20;5.75;;;2.80;;
16320;SDS011;8269;50.990;4.494;2023-06-04T07:07:46;4.25;;;2.60;;
16320;SDS011;8269;50.990;4.494;2023-06-04T07:10:12;5.75;;;2.60;;
16320;SDS011;8269;50.990;4.494;2023-06-04T07:12:39;5.63;;;2.50;;
16320;SDS011;8269;50.990;4.494;2023-06-04T07:15:05;5.10;;;2.40;;
16320;SDS011;8269;50.990;4.494;2023-06-04T07:17:33;3.33;;;2.25;;
16320;SDS011;8269;50.990;4.494;2023-06-04T07:19:59;5.15;;;2.63;;
16320;SDS011;8269;50.990;4.494;2023-06-04T07:22:25;5.25;;;2.80;;
16320;SDS011;8269;50.990;4.494;2023-06-04T07:24:51;3.78;;;2.58;;
16320;SDS011;8269;50.990;4.494;2023-06-04T07:27:18;6.28;;;2.60;;
16320;SDS011;8269;50.990;4.494;2023-06-04T07:29:44;4.25;;;2.65;;
16320;SDS011;8269;50.990;4.494;2023-06-04T07:32:11;4.20;;;2.45;;
16320;SDS011;8269;50.990;4.494;2023-06-04T07:34:40;6.28;;;2.60;;
16320;SDS011;8269;50.990;4.494;2023-06-04T07:37:07;4.28;;;2.40;;
16320;SDS011;8269;50.990;4.494;2023-06-04T07:39:42;3.03;;;2.03;;
16320;SDS011;8269;50.990;4.494;2023-06-04T07:42:08;4.20;;;2.60;;
16320;SDS011;8269;50.990;4.494;2023-06-04T07:44:36;4.85;;;2.50;;
16320;SDS011;8269;50.990;4.494;2023-06-04T07:47:03;5.05;;;2.15;;
16320;SDS011;8269;50.990;4.494;2023-06-04T07:49:31;3.88;;;2.15;;
16320;SDS011;8269;50.990;4.494;2023-06-04T07:51:57;2.80;;;2.25;;
16320;SDS011;8269;50.990;4.494;2023-06-04T07:54:23;3.65;;;2.10;;
16320;SDS011;8269;50.990;4.494;2023-06-04T07:56:52;3.65;;;2.00;;
16320;SDS011;8269;50.990;4.494;2023-06-04T07:59:21;3.03;;;2.10;;
16320;SDS011;8269;50.990;4.494;2023-06-04T08:01:47;3.75;;;2.00;;
16320;SDS011;8269;50.990;4.494;2023-06-04T08:04:13;3.40;;;1.95;;
16320;SDS011;8269;50.990;4.494;2023-06-04T08:06:39;4.18;;;2.22;;
16320;SDS011;8269;50.990;4.494;2023-06-04T08:09:05;3.78;;;1.92;;
16320;SDS011;8269;50.990;4.494;2023-06-04T08:11:32;3.38;;;1.95;;
16320;SDS011;8269;50.990;4.494;2023-06-04T08:13:58;6.00;;;2.15;;
16320;SDS011;8269;50.990;4.494;2023-06-04T08:16:24;5.10;;;2.35;;
16320;SDS011;8269;50.990;4.494;2023-06-04T08:18:49;4.43;;;2.03;;
16320;SDS011;8269;50.990;4.494;2023-06-04T08:21:24;3.97;;;1.98;;
16320;SDS011;8269;50.990;4.494;2023-06-04T08:23:50;3.72;;;2.10;;
16320;SDS011;8269;50.990;4.494;2023-06-04T08:26:16;3.97;;;1.85;;
16320;SDS011;8269;50.990;4.494;2023-06-04T08:28:42;5.45;;;1.80;;
16320;SDS011;8269;50.990;4.494;2023-06-04T08:31:12;3.17;;;1.63;;
16320;SDS011;8269;50.990;4.494;2023-06-04T08:33:38;3.03;;;1.80;;
16320;SDS011;8269;50.990;4.494;2023-06-04T08:36:04;3.05;;;1.50;;
16320;SDS011;8269;50.990;4.494;2023-06-04T08:38:30;2.45;;;1.60;;
16320;SDS011;8269;50.990;4.494;2023-06-04T08:40:56;3.10;;;1.58;;
16320;SDS011;8269;50.990;4.494;2023-06-04T08:43:29;3.58;;;1.67;;
16320;SDS011;8269;50.990;4.494;2023-06-04T08:45:58;3.70;;;1.63;;
16320;SDS011;8269;50.990;4.494;2023-06-04T08:48:26;3.83;;;1.90;;
16320;SDS011;8269;50.990;4.494;2023-06-04T08:50:53;3.72;;;1.60;;
16320;SDS011;8269;50.990;4.494;2023-06-04T08:53:22;4.05;;;1.80;;
16320;SDS011;8269;50.990;4.494;2023-06-04T08:55:49;4.60;;;1.60;;
16320;SDS011;8269;50.990;4.494;2023-06-04T08:58:18;4.50;;;1.50;;
16320;SDS011;8269;50.990;4.494;2023-06-04T09:00:45;5.55;;;1.70;;
16320;SDS011;8269;50.990;4.494;2023-06-04T09:03:11;3.78;;;1.77;;
16320;SDS011;8269;50.990;4.494;2023-06-04T09:05:40;4.50;;;1.70;;
16320;SDS011;8269;50.990;4.494;2023-06-04T09:08:12;5.30;;;1.90;;
16320;SDS011;8269;50.990;4.494;2023-06-04T09:10:39;5.35;;;1.73;;
16320;SDS011;8269;50.990;4.494;2023-06-04T09:13:06;2.15;;;1.38;;
16320;SDS011;8269;50.990;4.494;2023-06-04T09:15:34;3.40;;;1.70;;
16320;SDS011;8269;50.990;4.494;2023-06-04T09:17:59;3.40;;;1.50;;
16320;SDS011;8269;50.990;4.494;2023-06-04T09:20:27;2.72;;;1.50;;
16320;SDS011;8269;50.990;4.494;2023-06-04T09:22:53;4.50;;;1.80;;
16320;SDS011;8269;50.990;4.494;2023-06-04T09:25:25;3.22;;;1.42;;
16320;SDS011;8269;50.990;4.494;2023-06-04T09:27:52;2.85;;;1.50;;
16320;SDS011;8269;50.990;4.494;2023-06-04T09:30:20;5.75;;;1.60;;
16320;SDS011;8269;50.990;4.494;2023-06-04T09:32:46;5.55;;;1.52;;
16320;SDS011;8269;50.990;4.494;2023-06-04T09:37:39;4.85;;;1.40;;
16320;SDS011;8269;50.990;4.494;2023-06-04T09:40:06;3.90;;;1.65;;
16320;SDS011;8269;50.990;4.494;2023-06-04T09:42:43;3.10;;;1.45;;
16320;SDS011;8269;50.990;4.494;2023-06-04T09:45:10;5.93;;;1.80;;
16320;SDS011;8269;50.990;4.494;2023-06-04T09:47:43;2.53;;;1.40;;
16320;SDS011;8269;50.990;4.494;2023-06-04T09:50:12;4.15;;;1.42;;
16320;SDS011;8269;50.990;4.494;2023-06-04T09:52:38;2.88;;;1.55;;
16320;SDS011;8269;50.990;4.494;2023-06-04T09:55:25;4.95;;;1.73;;
16320;SDS011;8269;50.990;4.494;2023-06-04T09:57:51;2.58;;;1.35;;
16320;SDS011;8269;50.990;4.494;2023-06-04T10:00:18;4.85;;;1.60;;
16320;SDS011;8269;50.990;4.494;2023-06-04T10:02:49;4.03;;;1.70;;
16320;SDS011;8269;50.990;4.494;2023-06-04T10:05:15;3.78;;;1.70;;
16320;SDS011;8269;50.990;4.494;2023-06-04T10:07:45;3.88;;;1.50;;
16320;SDS011;8269;50.990;4.494;2023-06-04T10:10:13;4.55;;;1.60;;
16320;SDS011;8269;50.990;4.494;2023-06-04T10:12:41;3.00;;;1.60;;
16320;SDS011;8269;50.990;4.494;2023-06-04T10:15:10;3.10;;;1.60;;
16320;SDS011;8269;50.990;4.494;2023-06-04T10:17:36;4.93;;;1.30;;
16320;SDS011;8269;50.990;4.494;2023-06-04T10:20:03;3.30;;;1.45;;
16320;SDS011;8269;50.990;4.494;2023-06-04T10:22:30;3.50;;;1.60;;
16320;SDS011;8269;50.990;4.494;2023-06-04T10:24:57;2.33;;;1.45;;
16320;SDS011;8269;50.990;4.494;2023-06-04T10:27:23;2.78;;;1.58;;
16320;SDS011;8269;50.990;4.494;2023-06-04T10:29:49;6.00;;;1.60;;
16320;SDS011;8269;50.990;4.494;2023-06-04T10:32:17;4.88;;;1.35;;
16320;SDS011;8269;50.990;4.494;2023-06-04T10:34:43;4.38;;;1.80;;
16320;SDS011;8269;50.990;4.494;2023-06-04T10:37:22;4.57;;;1.45;;
16320;SDS011;8269;50.990;4.494;2023-06-04T10:39:52;2.97;;;1.52;;
16320;SDS011;8269;50.990;4.494;2023-06-04T10:42:19;2.65;;;1.48;;
16320;SDS011;8269;50.990;4.494;2023-06-04T10:44:47;4.47;;;1.60;;
16320;SDS011;8269;50.990;4.494;2023-06-04T10:47:26;3.28;;;1.40;;
16320;SDS011;8269;50.990;4.494;2023-06-04T10:50:05;4.38;;;1.70;;
16320;SDS011;8269;50.990;4.494;2023-06-04T10:52:32;3.40;;;1.60;;
16320;SDS011;8269;50.990;4.494;2023-06-04T10:55:04;2.88;;;1.60;;
16320;SDS011;8269;50.990;4.494;2023-06-04T10:57:31;4.65;;;1.83;;
16320;SDS011;8269;50.990;4.494;2023-06-04T10:59:58;4.47;;;1.60;;
16320;SDS011;8269;50.990;4.494;2023-06-04T11:02:24;2.70;;;1.52;;
16320;SDS011;8269;50.990;4.494;2023-06-04T11:05:04;5.22;;;1.65;;
16320;SDS011;8269;50.990;4.494;2023-06-04T11:07:44;2.22;;;1.35;;
16320;SDS011;8269;50.990;4.494;2023-06-04T11:10:11;5.13;;;1.58;;
16320;SDS011;8269;50.990;4.494;2023-06-04T11:12:41;4.40;;;1.80;;
16320;SDS011;8269;50.990;4.494;2023-06-04T11:15:07;6.22;;;2.17;;
16320;SDS011;8269;50.990;4.494;2023-06-04T11:17:33;4.47;;;1.65;;
16320;SDS011;8269;50.990;4.494;2023-06-04T11:19:59;3.85;;;1.52;;
16320;SDS011;8269;50.990;4.494;2023-06-04T11:22:25;7.05;;;1.60;;
16320;SDS011;8269;50.990;4.494;2023-06-04T11:24:57;2.85;;;1.50;;
16320;SDS011;8269;50.990;4.494;2023-06-04T11:27:26;4.95;;;1.70;;
16320;SDS011;8269;50.990;4.494;2023-06-04T11:29:52;4.43;;;1.80;;
16320;SDS011;8269;50.990;4.494;2023-06-04T11:32:22;3.40;;;1.73;;
16320;SDS011;8269;50.990;4.494;2023-06-04T11:34:48;5.68;;;1.58;;
16320;SDS011;8269;50.990;4.494;2023-06-04T11:37:14;3.90;;;1.90;;
16320;SDS011;8269;50.990;4.494;2023-06-04T11:39:40;3.00;;;1.42;;
16320;SDS011;8269;50.990;4.494;2023-06-04T11:42:09;2.40;;;1.52;;
16320;SDS011;8269;50.990;4.494;2023-06-04T11:44:35;3.65;;;1.80;;
16320;SDS011;8269;50.990;4.494;2023-06-04T11:47:04;3.80;;;1.40;;
16320;SDS011;8269;50.990;4.494;2023-06-04T11:49:30;4.03;;;1.55;;
16320;SDS011;8269;50.990;4.494;2023-06-04T11:51:56;4.22;;;1.70;;
16320;SDS011;8269;50.990;4.494;2023-06-04T11:54:22;7.72;;;1.70;;
16320;SDS011;8269;50.990;4.494;2023-06-04T11:56:49;4.53;;;1.70;;
16320;SDS011;8269;50.990;4.494;2023-06-04T11:59:16;5.38;;;1.50;;
16320;SDS011;8269;50.990;4.494;2023-06-04T12:01:43;3.28;;;1.60;;
16320;SDS011;8269;50.990;4.494;2023-06-04T12:04:15;5.10;;;1.60;;
16320;SDS011;8269;50.990;4.494;2023-06-04T12:09:21;4.85;;;1.95;;
16320;SDS011;8269;50.990;4.494;2023-06-04T12:11:47;3.90;;;1.70;;
16320;SDS011;8269;50.990;4.494;2023-06-04T12:14:17;2.95;;;1.58;;
16320;SDS011;8269;50.990;4.494;2023-06-04T12:16:59;3.40;;;1.67;;
16320;SDS011;8269;50.990;4.494;2023-06-04T12:19:26;3.53;;;1.85;;
16320;SDS011;8269;50.990;4.494;2023-06-04T12:21:59;4.35;;;1.85;;
16320;SDS011;8269;50.990;4.494;2023-06-04T12:24:26;3.08;;;1.70;;
16320;SDS011;8269;50.990;4.494;2023-06-04T12:27:00;4.03;;;1.70;;
16320;SDS011;8269;50.990;4.494;2023-06-04T12:29:32;4.50;;;1.75;;
16320;SDS011;8269;50.990;4.494;2023-06-04T12:32:05;4.13;;;1.60;;
16320;SDS011;8269;50.990;4.494;2023-06-04T12:34:33;3.47;;;1.70;;
16320;SDS011;8269;50.990;4.494;2023-06-04T12:37:00;5.07;;;1.42;;
16320;SDS011;8269;50.990;4.494;2023-06-04T12:39:26;6.18;;;1.55;;
16320;SDS011;8269;50.990;4.494;2023-06-04T12:41:52;5.30;;;1.77;;
16320;SDS011;8269;50.990;4.494;2023-06-04T12:44:18;3.78;;;1.42;;
16320;SDS011;8269;50.990;4.494;2023-06-04T12:46:45;4.63;;;1.67;;
16320;SDS011;8269;50.990;4.494;2023-06-04T12:49:11;4.70;;;1.80;;
16320;SDS011;8269;50.990;4.494;2023-06-04T12:51:37;4.82;;;1.50;;
16320;SDS011;8269;50.990;4.494;2023-06-04T12:54:03;4.07;;;1.85;;
16320;SDS011;8269;50.990;4.494;2023-06-04T12:56:29;5.80;;;1.50;;
16320;SDS011;8269;50.990;4.494;2023-06-04T12:58:56;2.35;;;1.40;;
16320;SDS011;8269;50.990;4.494;2023-06-04T13:01:22;2.30;;;1.70;;
16320;SDS011;8269;50.990;4.494;2023-06-04T13:03:48;4.40;;;1.70;;
16320;SDS011;8269;50.990;4.494;2023-06-04T13:06:13;2.65;;;1.70;;
16320;SDS011;8269;50.990;4.494;2023-06-04T13:08:40;2.17;;;1.38;;
16320;SDS011;8269;50.990;4.494;2023-06-04T13:11:06;4.47;;;1.70;;
16320;SDS011;8269;50.990;4.494;2023-06-04T13:13:33;3.72;;;1.90;;
16320;SDS011;8269;50.990;4.494;2023-06-04T13:15:58;4.25;;;1.60;;
16320;SDS011;8269;50.990;4.494;2023-06-04T13:18:24;3.33;;;1.55;;
16320;SDS011;8269;50.990;4.494;2023-06-04T13:20:50;2.17;;;1.45;;
16320;SDS011;8269;50.990;4.494;2023-06-04T13:23:15;3.22;;;1.70;;
16320;SDS011;8269;50.990;4.494;2023-06-04T13:25:42;4.13;;;1.50;;
16320;SDS011;8269;50.990;4.494;2023-06-04T13:28:07;3.38;;;1.50;;
16320;SDS011;8269;50.990;4.494;2023-06-04T13:30:36;3.92;;;2.05;;
16320;SDS011;8269;50.990;4.494;2023-06-04T13:33:03;3.55;;;1.75;;
16320;SDS011;8269;50.990;4.494;2023-06-04T13:35:29;2.85;;;1.65;;
16320;SDS011;8269;50.990;4.494;2023-06-04T13:37:56;2.88;;;1.70;;
16320;SDS011;8269;50.990;4.494;2023-06-04T13:40:21;3.95;;;1.70;;
16320;SDS011;8269;50.990;4.494;2023-06-04T13:42:47;3.08;;;1.70;;
16320;SDS011;8269;50.990;4.494;2023-06-04T13:45:13;2.95;;;1.70;;
16320;SDS011;8269;50.990;4.494;2023-06-04T13:47:41;2.92;;;1.80;;
16320;SDS011;8269;50.990;4.494;2023-06-04T13:50:07;4.13;;;1.77;;
16320;SDS011;8269;50.990;4.494;2023-06-04T13:52:33;3.63;;;2.00;;
16320;SDS011;8269;50.990;4.494;2023-06-04T13:55:00;3.00;;;1.85;;
16320;SDS011;8269;50.990;4.494;2023-06-04T13:57:27;5.80;;;1.70;;
16320;SDS011;8269;50.990;4.494;2023-06-04T13:59:53;4.13;;;1.73;;
16320;SDS011;8269;50.990;4.494;2023-06-04T14:02:19;4.78;;;1.60;;
16320;SDS011;8269;50.990;4.494;2023-06-04T14:04:45;3.38;;;1.75;;
16320;SDS011;8269;50.990;4.494;2023-06-04T14:07:11;3.08;;;1.50;;
16320;SDS011;8269;50.990;4.494;2023-06-04T14:09:37;3.22;;;1.52;;
16320;SDS011;8269;50.990;4.494;2023-06-04T14:12:03;3.28;;;1.50;;
16320;SDS011;8269;50.990;4.494;2023-06-04T14:14:29;2.60;;;1.55;;
16320;SDS011;8269;50.990;4.494;2023-06-04T14:17:01;6.05;;;1.80;;
16320;SDS011;8269;50.990;4.494;2023-06-04T14:19:30;2.72;;;1.85;;
16320;SDS011;8269;50.990;4.494;2023-06-04T14:21:56;4.78;;;1.80;;
16320;SDS011;8269;50.990;4.494;2023-06-04T14:24:22;2.80;;;1.45;;
16320;SDS011;8269;50.990;4.494;2023-06-04T14:26:48;4.22;;;1.65;;
16320;SDS011;8269;50.990;4.494;2023-06-04T14:29:14;3.22;;;1.90;;
16320;SDS011;8269;50.990;4.494;2023-06-04T14:31:39;3.00;;;1.60;;
16320;SDS011;8269;50.990;4.494;2023-06-04T14:34:05;5.75;;;1.92;;
16320;SDS011;8269;50.990;4.494;2023-06-04T14:36:34;3.45;;;1.90;;
16320;SDS011;8269;50.990;4.494;2023-06-04T14:38:59;2.72;;;1.48;;
16320;SDS011;8269;50.990;4.494;2023-06-04T14:41:25;3.83;;;1.92;;
16320;SDS011;8269;50.990;4.494;2023-06-04T14:43:52;3.70;;;1.88;;
16320;SDS011;8269;50.990;4.494;2023-06-04T14:46:17;2.60;;;1.63;;
16320;SDS011;8269;50.990;4.494;2023-06-04T14:48:43;3.42;;;1.70;;
16320;SDS011;8269;50.990;4.494;2023-06-04T14:51:09;4.15;;;1.60;;
16320;SDS011;8269;50.990;4.494;2023-06-04T14:53:35;2.50;;;1.67;;
16320;SDS011;8269;50.990;4.494;2023-06-04T14:56:04;2.78;;;1.73;;
16320;SDS011;8269;50.990;4.494;2023-06-04T14:58:30;5.18;;;2.03;;
16320;SDS011;8269;50.990;4.494;2023-06-04T15:00:56;3.95;;;1.70;;
16320;SDS011;8269;50.990;4.494;2023-06-04T15:03:23;3.05;;;2.00;;
16320;SDS011;8269;50.990;4.494;2023-06-04T15:05:49;5.57;;;2.00;;